sensor_id;sensor_type;location;lat;lon;timestamp;P1;durP1;ratioP1;P2;durP2;ratioP2
6834;SDS011;3455;42.150;24.734;2022-11-20T00:02:12;53.67;;;35.07;;
6834;SDS011;3455;42.150;24.734;2022-11-20T00:04:39;49.00;;;34.83;;
6834;SDS011;3455;42.150;24.734;2022-11-20T00:07:06;50.40;;;35.53;;
6834;SDS011;3455;42.150;24.734;2022-11-20T00:09:32;52.73;;;35.10;;
6834;SDS011;3455;42.150;24.734;2022-11-20T00:11:59;53.07;;;35.10;;
6834;SDS011;3455;42.150;24.734;2022-11-20T00:14:27;55.27;;;35.10;;
6834;SDS011;3455;42.150;24.734;2022-11-20T00:16:54;45.93;;;33.70;;
6834;SDS011;3455;42.150;24.734;2022-11-20T00:19:21;47.03;;;35.07;;
6834;SDS011;3455;42.150;24.734;2022-11-20T00:21:47;49.90;;;35.97;;
6834;SDS011;3455;42.150;24.734;2022-11-20T00:24:16;50.40;;;35.43;;
6834;SDS011;3455;42.150;24.734;2022-11-20T00:26:43;54.20;;;34.20;;
6834;SDS011;3455;42.150;24.734;2022-11-20T00:29:10;47.50;;;34.43;;
6834;SDS011;3455;42.150;24.734;2022-11-20T00:31:38;48.73;;;33.30;;
6834;SDS011;3455;42.150;24.734;2022-11-20T00:34:04;45.93;;;33.70;;
6834;SDS011;3455;42.150;24.734;2022-11-20T00:36:32;45.00;;;34.43;;
6834;SDS011;3455;42.150;24.734;2022-11-20T00:39:00;45.87;;;35.40;;
6834;SDS011;3455;42.150;24.734;2022-11-20T00:41:27;44.27;;;34.10;;
6834;SDS011;3455;42.150;24.734;2022-11-20T00:43:55;45.17;;;33.77;;
6834;SDS011;3455;42.150;24.734;2022-11-20T00:46:23;49.93;;;34.97;;
6834;SDS011;3455;42.150;24.734;2022-11-20T00:48:52;47.50;;;32.53;;
6834;SDS011;3455;42.150;24.734;2022-11-20T00:51:19;42.90;;;34.13;;
6834;SDS011;3455;42.150;24.734;2022-11-20T00:53:47;48.73;;;33.87;;
6834;SDS011;3455;42.150;24.734;2022-11-20T00:56:15;44.37;;;32.20;;
6834;SDS011;3455;42.150;24.734;2022-11-20T00:58:43;49.70;;;33.67;;
6834;SDS011;3455;42.150;24.734;2022-11-20T01:01:12;50.37;;;34.07;;
6834;SDS011;3455;42.150;24.734;2022-11-20T01:03:41;44.33;;;33.50;;
6834;SDS011;3455;42.150;24.734;2022-11-20T01:06:11;45.83;;;32.80;;
6834;SDS011;3455;42.150;24.734;2022-11-20T01:08:40;44.53;;;33.07;;
6834;SDS011;3455;42.150;24.734;2022-11-20T01:11:08;45.20;;;32.30;;
6834;SDS011;3455;42.150;24.734;2022-11-20T01:13:36;46.00;;;32.47;;
6834;SDS011;3455;42.150;24.734;2022-11-20T01:16:04;44.33;;;32.27;;
6834;SDS011;3455;42.150;24.734;2022-11-20T01:18:32;44.00;;;33.07;;
6834;SDS011;3455;42.150;24.734;2022-11-20T01:21:02;47.07;;;33.30;;
6834;SDS011;3455;42.150;24.734;2022-11-20T01:23:32;43.77;;;31.00;;
6834;SDS011;3455;42.150;24.734;2022-11-20T01:26:00;45.60;;;31.10;;
6834;SDS011;3455;42.150;24.734;2022-11-20T01:28:28;40.33;;;29.87;;
6834;SDS011;3455;42.150;24.734;2022-11-20T01:30:55;42.00;;;30.90;;
6834;SDS011;3455;42.150;24.734;2022-11-20T01:33:23;36.67;;;29.33;;
6834;SDS011;3455;42.150;24.734;2022-11-20T01:35:50;41.53;;;29.53;;
6834;SDS011;3455;42.150;24.734;2022-11-20T01:38:16;40.90;;;30.37;;
6834;SDS011;3455;42.150;24.734;2022-11-20T01:40:46;46.30;;;30.97;;
6834;SDS011;3455;42.150;24.734;2022-11-20T01:43:20;33.57;;;27.70;;
6834;SDS011;3455;42.150;24.734;2022-11-20T01:48:44;42.47;;;28.43;;
6834;SDS011;3455;42.150;24.734;2022-11-20T01:51:19;42.70;;;27.87;;
6834;SDS011;3455;42.150;24.734;2022-11-20T01:53:50;37.13;;;27.43;;
6834;SDS011;3455;42.150;24.734;2022-11-20T01:56:21;35.37;;;28.17;;
6834;SDS011;3455;42.150;24.734;2022-11-20T01:58:50;42.03;;;29.37;;
6834;SDS011;3455;42.150;24.734;2022-11-20T02:01:20;41.87;;;29.73;;
6834;SDS011;3455;42.150;24.734;2022-11-20T02:03:47;39.40;;;29.37;;
6834;SDS011;3455;42.150;24.734;2022-11-20T02:06:16;41.83;;;30.33;;
6834;SDS011;3455;42.150;24.734;2022-11-20T02:08:48;41.57;;;29.97;;
6834;SDS011;3455;42.150;24.734;2022-11-20T02:11:15;40.50;;;28.70;;
6834;SDS011;3455;42.150;24.734;2022-11-20T02:13:43;41.50;;;30.10;;
6834;SDS011;3455;42.150;24.734;2022-11-20T02:16:13;40.50;;;30.73;;
6834;SDS011;3455;42.150;24.734;2022-11-20T02:18:43;44.10;;;29.17;;
6834;SDS011;3455;42.150;24.734;2022-11-20T02:21:17;39.17;;;29.97;;
6834;SDS011;3455;42.150;24.734;2022-11-20T02:26:43;39.17;;;27.93;;
6834;SDS011;3455;42.150;24.734;2022-11-20T02:29:15;37.63;;;28.93;;
6834;SDS011;3455;42.150;24.734;2022-11-20T02:31:45;40.90;;;29.20;;
6834;SDS011;3455;42.150;24.734;2022-11-20T02:34:12;40.30;;;28.87;;
6834;SDS011;3455;42.150;24.734;2022-11-20T02:36:39;38.13;;;29.63;;
6834;SDS011;3455;42.150;24.734;2022-11-20T02:39:09;32.77;;;24.10;;
6834;SDS011;3455;42.150;24.734;2022-11-20T02:41:38;36.20;;;25.93;;
6834;SDS011;3455;42.150;24.734;2022-11-20T02:44:05;33.53;;;24.53;;
6834;SDS011;3455;42.150;24.734;2022-11-20T02:46:32;30.40;;;24.27;;
6834;SDS011;3455;42.150;24.734;2022-11-20T02:49:00;29.13;;;22.80;;
6834;SDS011;3455;42.150;24.734;2022-11-20T02:51:27;35.87;;;23.97;;
6834;SDS011;3455;42.150;24.734;2022-11-20T02:53:54;29.53;;;22.47;;
6834;SDS011;3455;42.150;24.734;2022-11-20T02:56:20;27.67;;;22.63;;
6834;SDS011;3455;42.150;24.734;2022-11-20T02:58:48;28.83;;;21.77;;
6834;SDS011;3455;42.150;24.734;2022-11-20T03:01:15;27.23;;;19.47;;
6834;SDS011;3455;42.150;24.734;2022-11-20T03:03:42;26.60;;;20.30;;
6834;SDS011;3455;42.150;24.734;2022-11-20T03:06:09;22.87;;;18.37;;
6834;SDS011;3455;42.150;24.734;2022-11-20T03:08:35;28.63;;;18.87;;
6834;SDS011;3455;42.150;24.734;2022-11-20T03:11:03;24.60;;;19.37;;
6834;SDS011;3455;42.150;24.734;2022-11-20T03:13:31;25.67;;;19.33;;
6834;SDS011;3455;42.150;24.734;2022-11-20T03:16:04;30.87;;;20.43;;
6834;SDS011;3455;42.150;24.734;2022-11-20T03:18:32;27.33;;;20.07;;
6834;SDS011;3455;42.150;24.734;2022-11-20T03:20:58;27.73;;;19.40;;
6834;SDS011;3455;42.150;24.734;2022-11-20T03:23:25;24.90;;;20.20;;
6834;SDS011;3455;42.150;24.734;2022-11-20T03:25:54;25.23;;;19.60;;
6834;SDS011;3455;42.150;24.734;2022-11-20T03:28:21;27.70;;;19.70;;
6834;SDS011;3455;42.150;24.734;2022-11-20T03:30:48;23.77;;;19.33;;
6834;SDS011;3455;42.150;24.734;2022-11-20T03:33:16;26.73;;;18.23;;
6834;SDS011;3455;42.150;24.734;2022-11-20T03:35:42;24.03;;;20.70;;
6834;SDS011;3455;42.150;24.734;2022-11-20T03:38:09;35.67;;;20.90;;
6834;SDS011;3455;42.150;24.734;2022-11-20T03:40:36;25.07;;;19.63;;
6834;SDS011;3455;42.150;24.734;2022-11-20T03:43:02;29.73;;;22.27;;
6834;SDS011;3455;42.150;24.734;2022-11-20T03:45:29;32.97;;;20.67;;
6834;SDS011;3455;42.150;24.734;2022-11-20T03:47:56;27.90;;;21.23;;
6834;SDS011;3455;42.150;24.734;2022-11-20T03:50:24;26.80;;;19.70;;
6834;SDS011;3455;42.150;24.734;2022-11-20T03:52:50;26.10;;;19.97;;
6834;SDS011;3455;42.150;24.734;2022-11-20T03:55:17;25.00;;;19.57;;
6834;SDS011;3455;42.150;24.734;2022-11-20T03:57:44;21.20;;;18.70;;
6834;SDS011;3455;42.150;24.734;2022-11-20T04:03:32;25.50;;;18.13;;
6834;SDS011;3455;42.150;24.734;2022-11-20T04:06:02;32.57;;;20.23;;
6834;SDS011;3455;42.150;24.734;2022-11-20T04:08:30;25.03;;;19.00;;
6834;SDS011;3455;42.150;24.734;2022-11-20T04:11:07;26.70;;;17.97;;
6834;SDS011;3455;42.150;24.734;2022-11-20T04:13:35;23.40;;;18.93;;
6834;SDS011;3455;42.150;24.734;2022-11-20T04:16:01;28.20;;;19.43;;
6834;SDS011;3455;42.150;24.734;2022-11-20T04:18:28;27.63;;;19.17;;
6834;SDS011;3455;42.150;24.734;2022-11-20T04:20:56;30.37;;;18.53;;
6834;SDS011;3455;42.150;24.734;2022-11-20T04:23:24;26.73;;;18.77;;
6834;SDS011;3455;42.150;24.734;2022-11-20T04:25:51;27.07;;;18.40;;
6834;SDS011;3455;42.150;24.734;2022-11-20T04:28:18;25.00;;;17.70;;
6834;SDS011;3455;42.150;24.734;2022-11-20T04:30:45;30.00;;;19.37;;
6834;SDS011;3455;42.150;24.734;2022-11-20T04:33:12;34.37;;;18.43;;
6834;SDS011;3455;42.150;24.734;2022-11-20T04:35:38;19.60;;;15.93;;
6834;SDS011;3455;42.150;24.734;2022-11-20T04:38:05;21.30;;;15.60;;
6834;SDS011;3455;42.150;24.734;2022-11-20T04:40:33;18.07;;;12.60;;
6834;SDS011;3455;42.150;24.734;2022-11-20T04:43:00;20.90;;;12.40;;
6834;SDS011;3455;42.150;24.734;2022-11-20T04:45:26;22.07;;;12.13;;
6834;SDS011;3455;42.150;24.734;2022-11-20T04:47:53;20.10;;;12.23;;
6834;SDS011;3455;42.150;24.734;2022-11-20T04:50:20;17.97;;;12.27;;
6834;SDS011;3455;42.150;24.734;2022-11-20T04:52:46;24.67;;;14.33;;
6834;SDS011;3455;42.150;24.734;2022-11-20T04:55:13;20.03;;;11.83;;
6834;SDS011;3455;42.150;24.734;2022-11-20T04:57:41;16.77;;;12.13;;
6834;SDS011;3455;42.150;24.734;2022-11-20T05:00:08;16.90;;;9.83;;
6834;SDS011;3455;42.150;24.734;2022-11-20T05:02:36;15.43;;;10.50;;
6834;SDS011;3455;42.150;24.734;2022-11-20T05:05:02;18.57;;;9.50;;
6834;SDS011;3455;42.150;24.734;2022-11-20T05:07:29;14.50;;;10.10;;
6834;SDS011;3455;42.150;24.734;2022-11-20T05:09:56;18.23;;;9.83;;
6834;SDS011;3455;42.150;24.734;2022-11-20T05:12:23;14.40;;;9.33;;
6834;SDS011;3455;42.150;24.734;2022-11-20T05:14:51;13.37;;;10.17;;
6834;SDS011;3455;42.150;24.734;2022-11-20T05:17:18;16.30;;;9.83;;
6834;SDS011;3455;42.150;24.734;2022-11-20T05:19:44;14.33;;;8.83;;
6834;SDS011;3455;42.150;24.734;2022-11-20T05:22:11;19.13;;;8.83;;
6834;SDS011;3455;42.150;24.734;2022-11-20T05:24:38;13.67;;;9.57;;
6834;SDS011;3455;42.150;24.734;2022-11-20T05:27:04;17.67;;;9.50;;
6834;SDS011;3455;42.150;24.734;2022-11-20T05:29:31;44.03;;;11.13;;
6834;SDS011;3455;42.150;24.734;2022-11-20T05:31:59;31.30;;;9.90;;
6834;SDS011;3455;42.150;24.734;2022-11-20T05:34:26;31.90;;;17.30;;
6834;SDS011;3455;42.150;24.734;2022-11-20T05:40:14;12.90;;;10.93;;
6834;SDS011;3455;42.150;24.734;2022-11-20T05:46:03;22.40;;;12.43;;
6834;SDS011;3455;42.150;24.734;2022-11-20T05:48:32;25.53;;;19.13;;
6834;SDS011;3455;42.150;24.734;2022-11-20T05:51:00;14.77;;;10.20;;
6834;SDS011;3455;42.150;24.734;2022-11-20T05:53:28;22.00;;;16.03;;
6834;SDS011;3455;42.150;24.734;2022-11-20T05:55:58;14.80;;;10.33;;
6834;SDS011;3455;42.150;24.734;2022-11-20T06:01:47;23.23;;;10.37;;
6834;SDS011;3455;42.150;24.734;2022-11-20T06:04:15;14.30;;;9.50;;
6834;SDS011;3455;42.150;24.734;2022-11-20T06:06:41;17.50;;;12.27;;
6834;SDS011;3455;42.150;24.734;2022-11-20T06:09:08;13.33;;;9.70;;
6834;SDS011;3455;42.150;24.734;2022-11-20T06:11:35;12.83;;;10.53;;
6834;SDS011;3455;42.150;24.734;2022-11-20T06:14:01;11.53;;;8.20;;
6834;SDS011;3455;42.150;24.734;2022-11-20T06:16:28;16.73;;;9.90;;
6834;SDS011;3455;42.150;24.734;2022-11-20T06:18:55;14.90;;;10.10;;
6834;SDS011;3455;42.150;24.734;2022-11-20T06:21:23;13.60;;;10.67;;
6834;SDS011;3455;42.150;24.734;2022-11-20T06:23:50;12.73;;;10.40;;
6834;SDS011;3455;42.150;24.734;2022-11-20T06:26:19;12.17;;;10.23;;
6834;SDS011;3455;42.150;24.734;2022-11-20T06:28:48;20.13;;;13.83;;
6834;SDS011;3455;42.150;24.734;2022-11-20T06:31:16;12.70;;;9.77;;
6834;SDS011;3455;42.150;24.734;2022-11-20T06:33:44;16.40;;;9.47;;
6834;SDS011;3455;42.150;24.734;2022-11-20T06:36:13;15.23;;;10.53;;
6834;SDS011;3455;42.150;24.734;2022-11-20T06:38:43;18.60;;;9.90;;
6834;SDS011;3455;42.150;24.734;2022-11-20T06:41:10;18.23;;;9.90;;
6834;SDS011;3455;42.150;24.734;2022-11-20T06:47:00;13.93;;;7.93;;
6834;SDS011;3455;42.150;24.734;2022-11-20T06:49:26;12.33;;;8.67;;
6834;SDS011;3455;42.150;24.734;2022-11-20T06:51:53;12.07;;;7.60;;
6834;SDS011;3455;42.150;24.734;2022-11-20T06:54:21;15.07;;;7.87;;
6834;SDS011;3455;42.150;24.734;2022-11-20T06:56:48;15.70;;;9.17;;
6834;SDS011;3455;42.150;24.734;2022-11-20T07:02:36;13.70;;;7.77;;
6834;SDS011;3455;42.150;24.734;2022-11-20T07:05:04;9.57;;;7.53;;
6834;SDS011;3455;42.150;24.734;2022-11-20T07:07:31;10.87;;;5.97;;
6834;SDS011;3455;42.150;24.734;2022-11-20T07:09:59;10.40;;;5.63;;
6834;SDS011;3455;42.150;24.734;2022-11-20T07:12:26;17.53;;;9.07;;
6834;SDS011;3455;42.150;24.734;2022-11-20T07:14:53;11.23;;;5.97;;
6834;SDS011;3455;42.150;24.734;2022-11-20T07:17:19;9.27;;;5.60;;
6834;SDS011;3455;42.150;24.734;2022-11-20T07:19:46;8.23;;;5.80;;
6834;SDS011;3455;42.150;24.734;2022-11-20T07:22:13;7.40;;;5.60;;
6834;SDS011;3455;42.150;24.734;2022-11-20T07:24:39;9.03;;;5.60;;
6834;SDS011;3455;42.150;24.734;2022-11-20T07:27:08;9.07;;;4.90;;
6834;SDS011;3455;42.150;24.734;2022-11-20T07:29:34;19.67;;;13.70;;
6834;SDS011;3455;42.150;24.734;2022-11-20T07:32:01;8.77;;;7.93;;
6834;SDS011;3455;42.150;24.734;2022-11-20T07:34:28;7.97;;;7.03;;
6834;SDS011;3455;42.150;24.734;2022-11-20T07:36:54;30.73;;;15.83;;
6834;SDS011;3455;42.150;24.734;2022-11-20T07:39:21;16.70;;;7.33;;
6834;SDS011;3455;42.150;24.734;2022-11-20T07:41:48;9.23;;;6.20;;
6834;SDS011;3455;42.150;24.734;2022-11-20T07:47:38;12.13;;;6.30;;
6834;SDS011;3455;42.150;24.734;2022-11-20T07:50:05;8.00;;;7.13;;
6834;SDS011;3455;42.150;24.734;2022-11-20T07:52:32;8.30;;;5.93;;
6834;SDS011;3455;42.150;24.734;2022-11-20T07:54:59;12.97;;;6.07;;
6834;SDS011;3455;42.150;24.734;2022-11-20T07:57:26;14.37;;;7.17;;
6834;SDS011;3455;42.150;24.734;2022-11-20T07:59:52;9.60;;;6.87;;
6834;SDS011;3455;42.150;24.734;2022-11-20T08:02:19;12.10;;;8.20;;
6834;SDS011;3455;42.150;24.734;2022-11-20T08:04:47;10.03;;;7.33;;
6834;SDS011;3455;42.150;24.734;2022-11-20T08:07:14;23.30;;;8.70;;
6834;SDS011;3455;42.150;24.734;2022-11-20T08:09:41;21.20;;;8.50;;
6834;SDS011;3455;42.150;24.734;2022-11-20T08:12:07;9.57;;;7.33;;
6834;SDS011;3455;42.150;24.734;2022-11-20T08:14:52;13.37;;;8.93;;
6834;SDS011;3455;42.150;24.734;2022-11-20T08:17:20;10.27;;;8.57;;
6834;SDS011;3455;42.150;24.734;2022-11-20T08:19:48;18.47;;;11.87;;
6834;SDS011;3455;42.150;24.734;2022-11-20T08:22:15;17.27;;;10.40;;
6834;SDS011;3455;42.150;24.734;2022-11-20T08:24:42;18.70;;;11.17;;
6834;SDS011;3455;42.150;24.734;2022-11-20T08:27:09;18.07;;;10.17;;
6834;SDS011;3455;42.150;24.734;2022-11-20T08:29:36;20.03;;;10.13;;
6834;SDS011;3455;42.150;24.734;2022-11-20T08:32:02;13.85;;;9.73;;
6834;SDS011;3455;42.150;24.734;2022-11-20T08:34:29;17.13;;;8.82;;
6834;SDS011;3455;42.150;24.734;2022-11-20T08:36:57;13.07;;;8.18;;
6834;SDS011;3455;42.150;24.734;2022-11-20T08:39:24;10.15;;;7.75;;
6834;SDS011;3455;42.150;24.734;2022-11-20T08:41:51;9.18;;;7.70;;
6834;SDS011;3455;42.150;24.734;2022-11-20T08:44:18;13.23;;;8.35;;
6834;SDS011;3455;42.150;24.734;2022-11-20T08:46:44;15.23;;;8.10;;
6834;SDS011;3455;42.150;24.734;2022-11-20T08:49:12;27.13;;;9.20;;
6834;SDS011;3455;42.150;24.734;2022-11-20T08:51:40;15.55;;;8.60;;
6834;SDS011;3455;42.150;24.734;2022-11-20T08:54:08;21.77;;;9.48;;
6834;SDS011;3455;42.150;24.734;2022-11-20T08:56:35;19.42;;;8.65;;
6834;SDS011;3455;42.150;24.734;2022-11-20T09:02:24;17.08;;;8.80;;
6834;SDS011;3455;42.150;24.734;2022-11-20T09:08:12;11.65;;;5.95;;
6834;SDS011;3455;42.150;24.734;2022-11-20T09:16:55;3.88;;;3.58;;
6834;SDS011;3455;42.150;24.734;2022-11-20T09:19:23;6.00;;;3.22;;
6834;SDS011;3455;42.150;24.734;2022-11-20T09:21:50;28.92;;;6.75;;
6834;SDS011;3455;42.150;24.734;2022-11-20T09:24:17;9.85;;;4.00;;
6834;SDS011;3455;42.150;24.734;2022-11-20T09:30:07;5.20;;;3.40;;
6834;SDS011;3455;42.150;24.734;2022-11-20T09:32:35;6.75;;;3.08;;
6834;SDS011;3455;42.150;24.734;2022-11-20T09:35:02;6.85;;;3.25;;
6834;SDS011;3455;42.150;24.734;2022-11-20T09:37:29;5.07;;;2.30;;
6834;SDS011;3455;42.150;24.734;2022-11-20T09:39:56;7.47;;;3.10;;
6834;SDS011;3455;42.150;24.734;2022-11-20T09:42:27;7.63;;;2.92;;
6834;SDS011;3455;42.150;24.734;2022-11-20T09:45:14;6.53;;;2.78;;
6834;SDS011;3455;42.150;24.734;2022-11-20T09:47:53;4.55;;;2.60;;
6834;SDS011;3455;42.150;24.734;2022-11-20T09:50:35;5.95;;;3.33;;
6834;SDS011;3455;42.150;24.734;2022-11-20T09:53:10;7.15;;;3.75;;
6834;SDS011;3455;42.150;24.734;2022-11-20T09:55:40;5.45;;;4.30;;
6834;SDS011;3455;42.150;24.734;2022-11-20T09:58:07;6.93;;;3.58;;
6834;SDS011;3455;42.150;24.734;2022-11-20T10:00:41;6.40;;;3.35;;
6834;SDS011;3455;42.150;24.734;2022-11-20T10:03:13;3.78;;;3.40;;
6834;SDS011;3455;42.150;24.734;2022-11-20T10:12:29;13.90;;;6.22;;
6834;SDS011;3455;42.150;24.734;2022-11-20T10:15:09;9.10;;;4.78;;
6834;SDS011;3455;42.150;24.734;2022-11-20T10:17:50;8.85;;;5.05;;
6834;SDS011;3455;42.150;24.734;2022-11-20T10:20:43;17.15;;;7.22;;
6834;SDS011;3455;42.150;24.734;2022-11-20T10:23:27;15.50;;;6.65;;
6834;SDS011;3455;42.150;24.734;2022-11-20T10:32:46;12.55;;;5.82;;
6834;SDS011;3455;42.150;24.734;2022-11-20T10:35:16;11.77;;;6.95;;
6834;SDS011;3455;42.150;24.734;2022-11-20T10:37:51;6.90;;;5.57;;
6834;SDS011;3455;42.150;24.734;2022-11-20T10:40:23;12.70;;;6.55;;
6834;SDS011;3455;42.150;24.734;2022-11-20T10:42:56;11.57;;;6.20;;
6834;SDS011;3455;42.150;24.734;2022-11-20T10:48:17;7.63;;;6.25;;
6834;SDS011;3455;42.150;24.734;2022-11-20T10:50:54;11.40;;;7.57;;
6834;SDS011;3455;42.150;24.734;2022-11-20T10:53:37;15.95;;;6.43;;
6834;SDS011;3455;42.150;24.734;2022-11-20T10:56:13;22.60;;;8.13;;
6834;SDS011;3455;42.150;24.734;2022-11-20T10:58:45;13.02;;;7.30;;
6834;SDS011;3455;42.150;24.734;2022-11-20T11:01:20;16.77;;;8.40;;
6834;SDS011;3455;42.150;24.734;2022-11-20T11:03:48;13.10;;;8.40;;
6834;SDS011;3455;42.150;24.734;2022-11-20T11:06:18;20.55;;;9.32;;
6834;SDS011;3455;42.150;24.734;2022-11-20T11:08:55;18.10;;;8.45;;
6834;SDS011;3455;42.150;24.734;2022-11-20T11:11:26;12.68;;;6.63;;
6834;SDS011;3455;42.150;24.734;2022-11-20T11:14:04;13.05;;;6.82;;
6834;SDS011;3455;42.150;24.734;2022-11-20T11:16:31;17.52;;;7.00;;
6834;SDS011;3455;42.150;24.734;2022-11-20T11:22:19;14.73;;;7.22;;
6834;SDS011;3455;42.150;24.734;2022-11-20T11:24:51;17.00;;;8.02;;
6834;SDS011;3455;42.150;24.734;2022-11-20T11:27:19;16.27;;;7.43;;
6834;SDS011;3455;42.150;24.734;2022-11-20T11:29:46;20.27;;;7.88;;
6834;SDS011;3455;42.150;24.734;2022-11-20T11:35:38;20.63;;;8.13;;
6834;SDS011;3455;42.150;24.734;2022-11-20T11:41:33;17.63;;;9.50;;
6834;SDS011;3455;42.150;24.734;2022-11-20T11:47:22;14.25;;;7.35;;
6834;SDS011;3455;42.150;24.734;2022-11-20T11:50:00;17.98;;;9.15;;
6834;SDS011;3455;42.150;24.734;2022-11-20T11:52:30;21.50;;;10.30;;
6834;SDS011;3455;42.150;24.734;2022-11-20T11:55:03;20.95;;;8.80;;
6834;SDS011;3455;42.150;24.734;2022-11-20T11:57:40;20.98;;;9.68;;
6834;SDS011;3455;42.150;24.734;2022-11-20T12:00:18;18.40;;;10.02;;
6834;SDS011;3455;42.150;24.734;2022-11-20T12:02:49;18.17;;;10.98;;
6834;SDS011;3455;42.150;24.734;2022-11-20T12:05:25;24.45;;;8.77;;
6834;SDS011;3455;42.150;24.734;2022-11-20T12:07:55;17.48;;;9.05;;
6834;SDS011;3455;42.150;24.734;2022-11-20T12:24:10;24.10;;;9.15;;
6834;SDS011;3455;42.150;24.734;2022-11-20T12:30:10;24.48;;;11.73;;
6834;SDS011;3455;42.150;24.734;2022-11-20T12:32:58;18.73;;;10.38;;
6834;SDS011;3455;42.150;24.734;2022-11-20T12:35:49;20.08;;;10.50;;
6834;SDS011;3455;42.150;24.734;2022-11-20T12:38:31;47.63;;;14.10;;
6834;SDS011;3455;42.150;24.734;2022-11-20T12:41:12;32.70;;;10.93;;
6834;SDS011;3455;42.150;24.734;2022-11-20T12:44:04;34.70;;;13.05;;
6834;SDS011;3455;42.150;24.734;2022-11-20T12:47:04;32.75;;;11.70;;
6834;SDS011;3455;42.150;24.734;2022-11-20T12:49:40;21.02;;;10.68;;
6834;SDS011;3455;42.150;24.734;2022-11-20T12:52:24;24.38;;;11.68;;
6834;SDS011;3455;42.150;24.734;2022-11-20T12:58:08;47.25;;;12.45;;
6834;SDS011;3455;42.150;24.734;2022-11-20T13:04:08;117.47;;;17.85;;
6834;SDS011;3455;42.150;24.734;2022-11-20T13:10:02;50.40;;;9.63;;
6834;SDS011;3455;42.150;24.734;2022-11-20T13:12:33;49.08;;;10.90;;
6834;SDS011;3455;42.150;24.734;2022-11-20T13:15:17;22.02;;;8.77;;
6834;SDS011;3455;42.150;24.734;2022-11-20T13:17:55;40.80;;;10.63;;
6834;SDS011;3455;42.150;24.734;2022-11-20T13:20:25;30.05;;;9.55;;
6834;SDS011;3455;42.150;24.734;2022-11-20T13:22:53;46.65;;;10.88;;
6834;SDS011;3455;42.150;24.734;2022-11-20T13:25:22;22.23;;;7.78;;
6834;SDS011;3455;42.150;24.734;2022-11-20T13:27:50;19.35;;;6.95;;
6834;SDS011;3455;42.150;24.734;2022-11-20T13:30:19;19.73;;;5.40;;
6834;SDS011;3455;42.150;24.734;2022-11-20T13:32:48;17.95;;;4.25;;
6834;SDS011;3455;42.150;24.734;2022-11-20T13:35:27;13.60;;;3.60;;
6834;SDS011;3455;42.150;24.734;2022-11-20T13:38:07;12.85;;;4.53;;
6834;SDS011;3455;42.150;24.734;2022-11-20T13:40:35;18.83;;;3.58;;
6834;SDS011;3455;42.150;24.734;2022-11-20T13:43:23;11.82;;;3.28;;
6834;SDS011;3455;42.150;24.734;2022-11-20T13:45:59;11.98;;;3.38;;
6834;SDS011;3455;42.150;24.734;2022-11-20T13:48:29;12.68;;;2.90;;
6834;SDS011;3455;42.150;24.734;2022-11-20T13:53:54;12.68;;;2.50;;
6834;SDS011;3455;42.150;24.734;2022-11-20T13:56:34;17.00;;;3.13;;
6834;SDS011;3455;42.150;24.734;2022-11-20T13:59:11;15.32;;;2.90;;
6834;SDS011;3455;42.150;24.734;2022-11-20T14:01:51;7.45;;;2.35;;
6834;SDS011;3455;42.150;24.734;2022-11-20T14:04:22;5.22;;;2.05;;
6834;SDS011;3455;42.150;24.734;2022-11-20T14:06:55;18.52;;;2.75;;
6834;SDS011;3455;42.150;24.734;2022-11-20T14:09:26;10.48;;;1.85;;
6834;SDS011;3455;42.150;24.734;2022-11-20T14:11:54;3.75;;;0.82;;
6834;SDS011;3455;42.150;24.734;2022-11-20T14:14:22;6.43;;;1.35;;
6834;SDS011;3455;42.150;24.734;2022-11-20T14:16:52;4.85;;;1.45;;
6834;SDS011;3455;42.150;24.734;2022-11-20T14:19:23;3.45;;;0.63;;
6834;SDS011;3455;42.150;24.734;2022-11-20T14:22:17;1.38;;;0.80;;
6834;SDS011;3455;42.150;24.734;2022-11-20T14:24:45;1.60;;;1.42;;
6834;SDS011;3455;42.150;24.734;2022-11-20T14:30:37;1.65;;;0.80;;
6834;SDS011;3455;42.150;24.734;2022-11-20T14:33:10;2.97;;;1.10;;
6834;SDS011;3455;42.150;24.734;2022-11-20T14:35:40;3.88;;;1.05;;
6834;SDS011;3455;42.150;24.734;2022-11-20T14:41:33;3.88;;;1.08;;
6834;SDS011;3455;42.150;24.734;2022-11-20T14:44:19;1.52;;;0.73;;
6834;SDS011;3455;42.150;24.734;2022-11-20T14:46:47;2.95;;;1.75;;
6834;SDS011;3455;42.150;24.734;2022-11-20T14:49:15;1.47;;;1.23;;
6834;SDS011;3455;42.150;24.734;2022-11-20T14:51:43;1.37;;;1.20;;
6834;SDS011;3455;42.150;24.734;2022-11-20T14:54:12;2.55;;;1.30;;
6834;SDS011;3455;42.150;24.734;2022-11-20T14:56:40;4.88;;;1.70;;
6834;SDS011;3455;42.150;24.734;2022-11-20T14:59:08;6.25;;;1.85;;
6834;SDS011;3455;42.150;24.734;2022-11-20T15:01:35;2.43;;;2.23;;
6834;SDS011;3455;42.150;24.734;2022-11-20T15:04:05;3.90;;;2.50;;
6834;SDS011;3455;42.150;24.734;2022-11-20T15:06:35;4.67;;;1.50;;
6834;SDS011;3455;42.150;24.734;2022-11-20T15:09:03;3.73;;;3.43;;
6834;SDS011;3455;42.150;24.734;2022-11-20T15:11:31;4.55;;;2.72;;
6834;SDS011;3455;42.150;24.734;2022-11-20T15:14:01;2.95;;;2.75;;
6834;SDS011;3455;42.150;24.734;2022-11-20T15:16:30;4.00;;;2.17;;
6834;SDS011;3455;42.150;24.734;2022-11-20T15:18:57;7.60;;;2.30;;
6834;SDS011;3455;42.150;24.734;2022-11-20T15:21:26;4.15;;;2.22;;
6834;SDS011;3455;42.150;24.734;2022-11-20T15:23:54;6.67;;;3.53;;
6834;SDS011;3455;42.150;24.734;2022-11-20T15:26:22;5.18;;;3.30;;
6834;SDS011;3455;42.150;24.734;2022-11-20T15:28:50;7.47;;;6.50;;
6834;SDS011;3455;42.150;24.734;2022-11-20T15:31:19;5.97;;;5.03;;
6834;SDS011;3455;42.150;24.734;2022-11-20T15:33:46;7.50;;;5.57;;
6834;SDS011;3455;42.150;24.734;2022-11-20T15:36:14;9.00;;;6.50;;
6834;SDS011;3455;42.150;24.734;2022-11-20T15:38:40;9.87;;;8.80;;
6834;SDS011;3455;42.150;24.734;2022-11-20T15:41:09;13.20;;;7.10;;
6834;SDS011;3455;42.150;24.734;2022-11-20T15:43:36;9.37;;;7.67;;
6834;SDS011;3455;42.150;24.734;2022-11-20T15:46:04;8.27;;;6.90;;
6834;SDS011;3455;42.150;24.734;2022-11-20T15:48:34;6.77;;;4.40;;
6834;SDS011;3455;42.150;24.734;2022-11-20T15:51:03;8.67;;;3.90;;
6834;SDS011;3455;42.150;24.734;2022-11-20T15:53:38;8.23;;;3.80;;
6834;SDS011;3455;42.150;24.734;2022-11-20T15:56:07;6.13;;;4.40;;
6834;SDS011;3455;42.150;24.734;2022-11-20T15:58:37;15.27;;;9.73;;
6834;SDS011;3455;42.150;24.734;2022-11-20T16:04:34;10.97;;;7.87;;
6834;SDS011;3455;42.150;24.734;2022-11-20T16:07:01;14.63;;;8.33;;
6834;SDS011;3455;42.150;24.734;2022-11-20T16:09:28;13.10;;;7.77;;
6834;SDS011;3455;42.150;24.734;2022-11-20T16:11:56;22.10;;;15.50;;
6834;SDS011;3455;42.150;24.734;2022-11-20T16:24:26;30.97;;;17.67;;
6834;SDS011;3455;42.150;24.734;2022-11-20T16:26:53;20.73;;;13.73;;
6834;SDS011;3455;42.150;24.734;2022-11-20T16:29:22;17.67;;;11.47;;
6834;SDS011;3455;42.150;24.734;2022-11-20T16:31:48;20.60;;;12.63;;
6834;SDS011;3455;42.150;24.734;2022-11-20T16:34:15;15.40;;;9.00;;
6834;SDS011;3455;42.150;24.734;2022-11-20T16:36:43;27.27;;;17.87;;
6834;SDS011;3455;42.150;24.734;2022-11-20T16:39:10;43.13;;;38.57;;
6834;SDS011;3455;42.150;24.734;2022-11-20T16:41:38;44.77;;;40.00;;
6834;SDS011;3455;42.150;24.734;2022-11-20T16:44:06;22.07;;;19.73;;
6834;SDS011;3455;42.150;24.734;2022-11-20T16:46:36;14.50;;;11.47;;
6834;SDS011;3455;42.150;24.734;2022-11-20T16:49:05;23.27;;;17.33;;
6834;SDS011;3455;42.150;24.734;2022-11-20T16:51:36;22.57;;;18.93;;
6834;SDS011;3455;42.150;24.734;2022-11-20T16:54:03;22.53;;;17.77;;
6834;SDS011;3455;42.150;24.734;2022-11-20T16:56:32;20.30;;;15.47;;
6834;SDS011;3455;42.150;24.734;2022-11-20T16:58:59;10.87;;;7.10;;
6834;SDS011;3455;42.150;24.734;2022-11-20T17:01:27;13.43;;;6.37;;
6834;SDS011;3455;42.150;24.734;2022-11-20T17:03:56;13.37;;;7.83;;